Time;durP1;ratioP1;P1;durP2;ratioP2;P2;SDS_P1;SDS_P2;PMS_P1;PMS_P2;Temp;Humidity;BMP_temperature;BMP_pressure;BME280_temperature;BME280_humidity;BME280_pressure;Samples;Min_cycle;Max_cycle;Signal;HPM_P1;HPM_P2
2022/05/11 00:00:36;;;;;;;6.05;4.00;;;13.80;99.90;;;;;;5056572;28;20041;-69
2022/05/11 00:03:03;;;;;;;7.20;4.00;;;13.80;99.90;;;;;;5056075;28;22216;-68
2022/05/11 00:05:28;;;;;;;;;;;13.80;99.90;;;;;;5054253;28;20025;-67
2022/05/11 00:07:54;;;;;;;7.65;4.57;;;13.80;99.90;;;;;;5056096;28;19938;-68
2022/05/11 00:10:20;;;;;;;;;;;13.70;99.90;;;;;;5063735;28;20048;-67
2022/05/11 00:12:47;;;;;;;7.15;4.50;;;13.80;99.90;;;;;;5053025;28;20070;-68
2022/05/11 00:15:16;;;;;;;7.28;4.10;;;13.80;99.90;;;;;;5053545;28;20718;-68
2022/05/11 00:17:41;;;;;;;6.50;3.97;;;13.80;99.90;;;;;;5065745;28;20123;-68
2022/05/11 00:20:09;;;;;;;7.95;4.30;;;13.80;99.90;;;;;;5059420;28;20178;-66
2022/05/11 00:22:35;;;;;;;11.10;4.63;;;13.70;99.90;;;;;;5063238;28;20244;-68
2022/05/11 00:25:03;;;;;;;6.40;3.85;;;13.70;99.90;;;;;;5049303;28;20116;-66
2022/05/11 00:27:29;;;;;;;7.13;4.20;;;13.80;99.90;;;;;;5068556;28;20045;-68
2022/05/11 00:29:54;;;;;;;7.07;4.37;;;13.80;99.90;;;;;;5061585;28;20465;-67
2022/05/11 00:32:23;;;;;;;7.43;4.18;;;13.80;99.90;;;;;;5058197;28;21211;-68
2022/05/11 00:34:48;;;;;;;9.52;4.88;;;13.80;99.90;;;;;;5056054;28;20138;-67
2022/05/11 00:37:14;;;;;;;9.80;4.43;;;13.80;99.90;;;;;;5058386;28;20079;-68
2022/05/11 00:39:39;;;;;;;8.23;4.73;;;13.90;99.90;;;;;;5063735;28;20048;-68
2022/05/11 00:42:05;;;;;;;8.33;4.47;;;13.90;99.90;;;;;;5062274;28;20028;-67
2022/05/11 00:44:31;;;;;;;8.88;5.10;;;13.90;99.90;;;;;;5057436;28;20044;-67
2022/05/11 00:49:39;;;;;;;10.88;5.05;;;13.90;99.90;;;;;;5057468;28;20044;-67
2022/05/11 00:52:15;;;;;;;7.60;4.82;;;13.90;99.90;;;;;;5054368;28;20497;-66
2022/05/11 00:54:47;;;;;;;9.85;4.35;;;13.90;99.90;;;;;;5062556;28;20087;-66
2022/05/11 00:57:22;;;;;;;8.68;4.68;;;13.90;99.90;;;;;;5037924;28;20036;-66
2022/05/11 00:59:51;;;;;;;9.25;4.10;;;13.90;99.90;;;;;;5058344;28;20128;-66
2022/05/11 01:02:18;;;;;;;12.20;4.47;;;13.90;99.90;;;;;;5053457;28;20289;-66
2022/05/11 01:04:45;;;;;;;7.22;4.35;;;13.90;99.90;;;;;;5055210;28;20553;-66
2022/05/11 01:07:13;;;;;;;7.22;4.28;;;13.90;99.90;;;;;;5039957;28;20087;-67
2022/05/11 01:09:40;;;;;;;7.30;4.18;;;14.00;99.90;;;;;;5057318;28;20587;-66
2022/05/11 01:12:08;;;;;;;;;;;14.00;99.90;;;;;;5024499;28;20040;-66
2022/05/11 01:14:38;;;;;;;7.18;4.13;;;14.00;99.90;;;;;;5047516;28;19917;-66
2022/05/11 01:17:04;;;;;;;6.78;3.70;;;13.90;99.90;;;;;;5038758;28;20389;-66
2022/05/11 01:19:35;;;;;;;8.68;4.32;;;14.00;99.90;;;;;;5053797;28;20041;-66
2022/05/11 01:22:21;;;;;;;11.45;4.45;;;13.90;99.90;;;;;;5057646;28;20029;-66
2022/05/11 01:24:48;;;;;;;8.10;3.97;;;14.00;99.90;;;;;;5060033;28;20119;-66
2022/05/11 01:27:27;;;;;;;6.57;4.10;;;14.00;99.90;;;;;;5042507;28;20417;-67
2022/05/11 01:29:55;;;;;;;6.70;3.45;;;13.90;99.90;;;;;;5068925;28;20124;-66
2022/05/11 01:32:22;;;;;;;6.53;3.85;;;13.90;99.90;;;;;;5059529;28;20048;-67
2022/05/11 01:34:55;;;;;;;7.07;3.95;;;13.90;99.90;;;;;;5046086;28;20806;-66
2022/05/11 01:37:20;;;;;;;11.05;4.47;;;13.90;99.90;;;;;;5044184;28;20033;-67
2022/05/11 01:39:48;;;;;;;9.00;3.80;;;13.90;99.90;;;;;;5065266;28;20078;-66
2022/05/11 01:42:14;;;;;;;6.68;4.10;;;13.80;99.90;;;;;;5040149;28;20041;-67
2022/05/11 01:44:40;;;;;;;6.90;3.77;;;13.90;99.90;;;;;;5042203;28;20036;-67
2022/05/11 01:47:06;;;;;;;7.82;3.83;;;13.90;99.90;;;;;;5043241;28;20302;-67
2022/05/11 01:49:32;;;;;;;8.13;3.58;;;13.90;99.90;;;;;;5064516;28;20048;-67
2022/05/11 01:51:58;;;;;;;7.97;4.07;;;13.90;99.90;;;;;;5064088;28;20549;-67
2022/05/11 01:54:24;;;;;;;8.93;3.92;;;13.90;99.90;;;;;;5048181;28;21035;-67
2022/05/11 01:56:50;;;;;;;6.85;3.80;;;13.90;99.90;;;;;;5058520;28;20060;-67
2022/05/11 01:59:16;;;;;;;7.32;3.55;;;13.90;99.90;;;;;;5069962;28;20090;-67
2022/05/11 02:01:42;;;;;;;8.48;4.28;;;13.80;99.90;;;;;;5062182;28;20064;-67
2022/05/11 02:09:41;;;;;;;12.05;4.35;;;13.90;99.90;;;;;;5058825;28;20439;-67
2022/05/11 02:12:09;;;;;;;6.15;3.47;;;13.80;99.90;;;;;;5038232;28;20040;-67
2022/05/11 02:14:35;;;;;;;6.75;3.90;;;13.90;99.90;;;;;;5048164;28;20404;-75
2022/05/11 02:17:01;;;;;;;7.03;3.97;;;13.80;99.90;;;;;;5044636;28;20028;-67
2022/05/11 02:19:28;;;;;;;7.57;4.22;;;13.80;99.90;;;;;;5064077;28;20447;-69
2022/05/11 02:21:54;;;;;;;8.40;4.05;;;13.80;99.90;;;;;;5032001;28;20071;-66
2022/05/11 02:24:19;;;;;;;4.93;3.00;;;13.80;99.90;;;;;;5052584;28;20056;-66
2022/05/11 02:26:45;;;;;;;6.53;3.90;;;13.80;99.90;;;;;;5054661;28;20051;-66
2022/05/11 02:29:11;;;;;;;8.67;3.70;;;13.80;99.90;;;;;;5061042;28;20036;-66
2022/05/11 02:31:36;;;;;;;8.30;4.00;;;13.80;99.90;;;;;;5057979;28;20072;-66
2022/05/11 02:34:05;;;;;;;5.27;3.10;;;13.80;99.90;;;;;;5040245;28;20071;-66
2022/05/11 02:36:32;;;;;;;7.30;3.70;;;13.80;99.90;;;;;;5058024;28;20476;-67
2022/05/11 02:38:58;;;;;;;6.22;3.20;;;13.80;99.90;;;;;;5059019;28;20037;-66
2022/05/11 02:41:23;;;;;;;7.40;3.92;;;13.80;99.90;;;;;;5059054;28;20037;-66
2022/05/11 02:43:49;;;;;;;7.25;3.47;;;13.80;99.90;;;;;;5057144;28;20032;-66
2022/05/11 02:46:15;;;;;;;5.63;3.40;;;13.80;99.90;;;;;;5058497;28;20071;-66
2022/05/11 02:48:41;;;;;;;6.47;3.88;;;13.80;99.90;;;;;;5054462;28;20476;-67
2022/05/11 02:51:07;;;;;;;8.27;3.60;;;13.80;99.90;;;;;;5059420;28;20304;-67
2022/05/11 02:53:33;;;;;;;5.60;3.10;;;13.70;99.90;;;;;;5055457;28;20041;-66
2022/05/11 02:55:59;;;;;;;5.18;2.95;;;13.70;99.90;;;;;;5057849;28;20497;-66
2022/05/11 02:58:28;;;;;;;7.35;3.33;;;13.70;99.90;;;;;;5057548;28;20542;-66
2022/05/11 03:00:58;;;;;;;7.30;3.53;;;13.80;99.90;;;;;;5052265;28;20501;-66
2022/05/11 03:03:24;;;;;;;7.43;3.88;;;13.70;99.90;;;;;;5057218;28;20457;-67
2022/05/11 03:05:52;;;;;;;5.57;3.40;;;13.80;99.90;;;;;;5058992;28;20044;-66
2022/05/11 03:08:18;;;;;;;6.20;3.17;;;13.70;99.90;;;;;;5024910;28;20134;-66
2022/05/11 03:10:44;;;;;;;7.45;3.30;;;13.70;99.90;;;;;;5051195;28;20045;-66
2022/05/11 03:13:10;;;;;;;7.00;3.10;;;13.70;99.90;;;;;;5036504;28;20242;-66
2022/05/11 03:15:36;;;;;;;7.90;3.40;;;13.70;99.90;;;;;;5055886;28;20386;-66
2022/05/11 03:18:02;;;;;;;;;;;13.70;99.90;;;;;;5040662;28;20317;-66
2022/05/11 03:20:27;;;;;;;8.52;3.13;;;13.70;99.90;;;;;;5049490;28;19917;-66
2022/05/11 03:22:54;;;;;;;4.53;2.93;;;13.70;99.90;;;;;;5060205;28;20064;-66
2022/05/11 03:25:21;;;;;;;6.07;2.75;;;13.70;99.90;;;;;;5047773;28;20135;-66
2022/05/11 03:27:47;;;;;;;6.18;2.85;;;13.70;99.90;;;;;;5052455;28;20131;-66
2022/05/11 03:30:14;;;;;;;5.45;2.92;;;13.60;99.90;;;;;;5057105;28;20113;-66
2022/05/11 03:35:24;;;;;;;6.85;2.88;;;13.70;99.90;;;;;;5057974;28;20729;-66
2022/05/11 03:37:50;;;;;;;7.20;3.25;;;13.60;99.90;;;;;;5037974;28;20169;-66
2022/05/11 03:40:15;;;;;;;5.67;2.40;;;13.70;99.90;;;;;;5040068;28;20059;-66
2022/05/11 03:42:42;;;;;;;6.30;3.07;;;13.70;99.90;;;;;;5051099;28;20472;-66
2022/05/11 03:45:17;;;;;;;6.43;2.92;;;13.60;99.90;;;;;;5053770;28;20037;-68
2022/05/11 03:47:43;;;;;;;4.63;2.60;;;13.60;99.90;;;;;;5045132;28;20179;-66
2022/05/11 03:50:09;;;;;;;4.85;2.33;;;13.60;99.90;;;;;;5060152;28;20397;-66
2022/05/11 03:52:35;;;;;;;7.32;3.10;;;13.60;99.90;;;;;;5028746;28;20067;-66
2022/05/11 03:55:02;;;;;;;;;;;13.60;99.90;;;;;;5038553;28;20505;-66
2022/05/11 03:57:28;;;;;;;4.60;2.53;;;13.60;99.90;;;;;;5063016;28;20327;-66
2022/05/11 03:59:53;;;;;;;4.87;2.30;;;13.60;99.90;;;;;;5060787;28;20287;-66
2022/05/11 04:02:19;;;;;;;5.27;2.53;;;13.60;99.90;;;;;;5065291;28;20048;-66
2022/05/11 04:04:44;;;;;;;6.97;2.47;;;13.60;99.90;;;;;;5057994;28;20063;-66
2022/05/11 04:07:10;;;;;;;4.40;2.37;;;13.60;99.90;;;;;;5049468;28;20355;-66
2022/05/11 04:09:36;;;;;;;7.03;2.60;;;13.60;99.90;;;;;;5063775;28;20521;-67
2022/05/11 04:12:01;;;;;;;5.50;2.30;;;13.60;99.90;;;;;;5069247;28;20032;-70
2022/05/11 04:14:27;;;;;;;5.07;2.50;;;13.60;99.90;;;;;;5031285;28;20578;-66
2022/05/11 04:16:59;;;;;;;3.43;2.20;;;13.60;99.90;;;;;;5061903;28;20420;-66
2022/05/11 04:19:25;;;;;;;5.65;2.75;;;13.60;99.90;;;;;;5064945;28;20070;-66
2022/05/11 04:21:51;;;;;;;4.78;2.10;;;13.60;99.90;;;;;;5067462;28;20120;-67
2022/05/11 04:24:16;;;;;;;7.03;2.60;;;13.60;99.90;;;;;;5046270;28;20115;-66
2022/05/11 04:26:42;;;;;;;10.47;3.30;;;13.60;99.90;;;;;;5043663;28;20040;-66
2022/05/11 04:29:07;;;;;;;5.70;2.17;;;13.60;99.90;;;;;;5049787;28;20276;-66
2022/05/11 04:31:33;;;;;;;5.13;2.30;;;13.60;99.90;;;;;;5030693;28;20041;-67
2022/05/11 04:33:59;;;;;;;4.80;2.60;;;13.60;99.90;;;;;;5061514;28;20683;-67
2022/05/11 04:36:24;;;;;;;6.90;3.03;;;13.60;99.90;;;;;;5062542;28;20432;-66
2022/05/11 04:38:50;;;;;;;7.07;2.53;;;13.60;99.90;;;;;;5034858;28;20392;-66
2022/05/11 04:41:16;;;;;;;5.80;3.10;;;13.70;99.90;;;;;;5057018;28;20040;-66
2022/05/11 04:43:42;;;;;;;4.88;2.67;;;13.70;99.90;;;;;;5055670;28;20208;-66
2022/05/11 04:46:07;;;;;;;5.43;2.73;;;13.70;99.90;;;;;;5062846;28;20174;-66
2022/05/11 04:48:33;;;;;;;6.13;2.53;;;13.70;99.90;;;;;;5049280;28;20072;-66
2022/05/11 04:51:01;;;;;;;5.13;2.50;;;13.70;99.90;;;;;;5055088;28;20036;-66
2022/05/11 04:53:28;;;;;;;6.05;2.40;;;13.70;99.90;;;;;;5032276;28;20183;-66
2022/05/11 04:55:54;;;;;;;7.15;3.03;;;13.70;99.90;;;;;;5044154;28;20497;-67
2022/05/11 04:58:19;;;;;;;4.22;2.25;;;13.70;99.90;;;;;;5066911;28;20070;-66
2022/05/11 05:00:45;;;;;;;4.40;2.22;;;13.70;99.90;;;;;;5066807;28;20036;-66
2022/05/11 05:03:13;;;;;;;7.22;2.53;;;13.80;99.90;;;;;;5035009;28;20041;-67
2022/05/11 05:05:39;;;;;;;6.28;2.42;;;13.80;99.90;;;;;;5061539;28;20043;-66
2022/05/11 05:08:05;;;;;;;4.38;2.15;;;13.80;99.90;;;;;;5046807;28;20037;-66
2022/05/11 05:10:31;;;;;;;5.95;2.95;;;13.80;99.90;;;;;;5055668;28;20033;-66
2022/05/11 05:13:03;;;;;;;5.78;2.65;;;13.80;99.90;;;;;;5060824;28;20047;-66
2022/05/11 05:15:29;;;;;;;5.95;2.65;;;13.80;99.90;;;;;;5043530;28;20055;-66
2022/05/11 05:17:54;;;;;;;6.03;2.60;;;13.80;99.90;;;;;;5044147;28;20462;-66
2022/05/11 05:20:21;;;;;;;7.17;2.57;;;13.80;99.90;;;;;;5059680;28;20286;-66
2022/05/11 05:22:47;;;;;;;6.53;2.53;;;13.80;99.90;;;;;;5057366;28;20503;-66
2022/05/11 05:25:12;;;;;;;5.25;2.65;;;13.90;99.90;;;;;;5054153;28;20075;-66
2022/05/11 05:27:38;;;;;;;5.38;2.00;;;13.90;99.90;;;;;;5066795;28;20076;-67
2022/05/11 05:32:48;;;;;;;6.80;2.78;;;13.90;99.90;;;;;;5053543;28;20581;-66
2022/05/11 05:35:16;;;;;;;5.00;2.60;;;13.90;99.90;;;;;;5061839;28;20123;-66
2022/05/11 05:37:43;;;;;;;6.32;2.78;;;14.00;99.90;;;;;;5045945;28;20197;-66
2022/05/11 05:40:08;;;;;;;;;;;14.00;99.90;;;;;;5066295;28;20036;-66
2022/05/11 05:42:34;;;;;;;5.20;2.22;;;14.10;99.90;;;;;;5042457;28;20023;-66
2022/05/11 05:45:00;;;;;;;8.07;2.53;;;14.10;99.90;;;;;;5060128;28;20045;-66
2022/05/11 05:47:25;;;;;;;7.10;2.65;;;14.10;99.90;;;;;;5038018;28;20302;-66
2022/05/11 05:49:51;;;;;;;7.47;2.47;;;14.10;99.90;;;;;;5064725;28;20354;-66
2022/05/11 05:52:19;;;;;;;7.67;2.20;;;14.20;99.90;;;;;;5040957;28;20064;-66
2022/05/11 05:54:45;;;;;;;6.38;3.25;;;14.20;99.90;;;;;;5060872;28;21012;-66
2022/05/11 05:57:14;;;;;;;11.77;2.90;;;14.20;99.90;;;;;;5061707;28;20043;-67
2022/05/11 05:59:41;;;;;;;9.57;2.38;;;14.20;99.90;;;;;;5063962;28;20052;-66
2022/05/11 06:02:12;;;;;;;;;;;14.20;99.90;;;;;;5064599;28;20094;-66
2022/05/11 06:04:49;;;;;;;4.90;2.55;;;14.20;99.90;;;;;;5061537;28;19954;-66
2022/05/11 06:07:17;;;;;;;8.93;2.80;;;14.30;99.90;;;;;;5049650;28;20490;-74
2022/05/11 06:09:42;;;;;;;5.90;2.22;;;14.40;99.90;;;;;;5028232;28;20161;-67
2022/05/11 06:12:11;;;;;;;6.68;2.45;;;14.40;99.90;;;;;;5058101;28;20167;-66
2022/05/11 06:14:38;;;;;;;4.75;2.30;;;14.40;99.90;;;;;;5064147;28;20040;-67
2022/05/11 06:17:11;;;;;;;7.50;3.25;;;14.50;99.90;;;;;;5062335;28;20448;-67
2022/05/11 06:19:38;;;;;;;6.75;3.08;;;14.60;99.90;;;;;;5055366;28;20505;-67
2022/05/11 06:22:04;;;;;;;6.32;2.60;;;14.60;99.90;;;;;;5063046;28;20036;-66
2022/05/11 06:24:33;;;;;;;6.60;2.42;;;14.70;99.90;;;;;;5045807;28;20044;-66
2022/05/11 06:26:58;;;;;;;7.55;2.70;;;14.70;99.90;;;;;;5061998;28;20036;-67
2022/05/11 06:29:24;;;;;;;7.22;2.97;;;14.80;99.90;;;;;;5054421;28;20244;-67
2022/05/11 06:31:49;;;;;;;4.10;2.67;;;14.90;99.90;;;;;;5064111;28;20431;-66
2022/05/11 06:34:16;;;;;;;8.00;2.20;;;14.90;99.90;;;;;;5044362;28;20323;-67
2022/05/11 06:36:42;;;;;;;5.43;2.15;;;14.90;99.90;;;;;;5063538;28;20412;-66
2022/05/11 06:39:08;;;;;;;5.00;1.88;;;14.90;99.90;;;;;;5055924;28;20043;-67
2022/05/11 06:41:34;;;;;;;12.77;2.47;;;14.90;99.90;;;;;;5060630;28;20054;-67
2022/05/11 06:43:59;;;;;;;6.68;2.00;;;14.90;99.90;;;;;;5062736;28;20481;-67
2022/05/11 06:46:25;;;;;;;5.00;2.20;;;14.90;99.90;;;;;;5055225;28;20029;-67
2022/05/11 06:49:05;;;;;;;3.97;1.83;;;14.90;99.90;;;;;;5067610;22;20041;-89
2022/05/11 06:51:36;;;;;;;8.02;2.10;;;14.90;99.90;;;;;;5008949;28;20056;-89
2022/05/11 06:59:55;;;;;;;5.38;1.42;;;15.00;99.90;;;;;;5008487;28;20460;-89
2022/05/11 07:02:30;;;;;;;6.60;1.90;;;15.00;99.90;;;;;;4988931;28;20456;-91
2022/05/11 07:05:16;;;;;;;4.35;1.73;;;15.00;99.90;;;;;;4995957;28;20034;-89
2022/05/11 07:07:50;;;;;;;6.85;1.88;;;15.00;99.90;;;;;;5004244;28;20117;-89
2022/05/11 07:10:25;;;;;;;6.43;1.50;;;15.10;99.90;;;;;;5007114;28;20684;-87
2022/05/11 07:12:56;;;;;;;4.93;1.58;;;15.10;99.90;;;;;;4995651;28;20049;-88
2022/05/11 07:15:25;;;;;;;6.03;2.15;;;15.10;99.90;;;;;;5009971;28;20404;-88
2022/05/11 07:18:03;;;;;;;5.22;2.28;;;15.10;99.90;;;;;;5007626;28;20061;-90
2022/05/11 07:20:41;;;;;;;8.63;1.73;;;15.10;99.90;;;;;;4988258;28;20045;-88
2022/05/11 07:23:14;;;;;;;4.13;1.52;;;15.20;99.90;;;;;;4989274;28;20098;-89
2022/05/11 07:25:45;;;;;;;6.43;1.60;;;15.20;99.90;;;;;;4994217;28;20104;-89
2022/05/11 07:28:23;;;;;;;6.25;1.90;;;15.30;99.90;;;;;;4997057;28;20041;-90
2022/05/11 07:30:52;;;;;;;6.10;1.73;;;15.30;99.90;;;;;;4971516;28;20056;-90
2022/05/11 07:33:38;;;;;;;7.43;1.67;;;15.30;99.90;;;;;;5011505;28;20455;-90
2022/05/11 07:36:14;;;;;;;12.98;1.95;;;15.40;99.90;;;;;;5006253;28;20040;-88
2022/05/11 07:38:45;;;;;;;4.38;1.90;;;15.40;99.90;;;;;;5013343;28;20069;-87
2022/05/11 07:41:19;;;;;;;7.25;2.15;;;15.50;99.90;;;;;;4997923;28;20042;-89
2022/05/11 07:43:49;;;;;;;8.27;1.40;;;15.60;99.90;;;;;;4989894;28;20080;-90
2022/05/11 07:46:25;;;;;;;11.38;1.70;;;15.60;99.90;;;;;;4978199;28;20431;-89
2022/05/11 07:48:54;;;;;;;4.70;1.67;;;15.60;99.90;;;;;;4994397;28;20077;-88
2022/05/11 07:51:29;;;;;;;5.15;1.63;;;15.60;99.90;;;;;;4979009;28;20384;-89
2022/05/11 07:54:00;;;;;;;7.25;1.98;;;15.60;99.90;;;;;;4994029;28;20030;-91
2022/05/11 08:02:00;;;;;;;6.20;1.73;;;15.80;99.90;;;;;;5005835;28;20046;-89
2022/05/11 08:04:31;;;;;;;10.02;2.72;;;15.80;99.90;;;;;;4988856;28;20065;-89
2022/05/11 08:06:56;;;;;;;4.88;1.40;;;15.80;99.90;;;;;;4990545;28;20139;-89
2022/05/11 08:09:38;;;;;;;4.55;1.40;;;15.80;99.90;;;;;;4973773;28;20042;-89
2022/05/11 08:12:15;;;;;;;7.03;2.00;;;15.90;99.90;;;;;;4985631;28;20121;-91
2022/05/11 08:15:06;;;;;;;5.88;1.98;;;15.90;99.90;;;;;;4995430;28;20030;-89
2022/05/11 08:17:54;;;;;;;6.43;2.00;;;15.90;99.90;;;;;;5007513;28;20061;-89
2022/05/11 08:20:37;;;;;;;5.07;1.90;;;16.00;99.90;;;;;;4989961;28;20143;-89
2022/05/11 08:23:16;;;;;;;8.68;2.15;;;16.00;99.90;;;;;;4978661;28;20069;-87
2022/05/11 08:25:54;;;;;;;12.38;2.80;;;16.10;99.90;;;;;;5013590;28;20056;-89
2022/05/11 08:28:37;;;;;;;5.38;1.92;;;16.20;99.90;;;;;;4990704;28;20056;-91
2022/05/11 08:34:02;;;;;;;3.78;1.75;;;16.10;99.90;;;;;;5005037;28;20042;-91
2022/05/11 08:36:45;;;;;;;6.60;1.70;;;16.30;99.90;;;;;;4992768;28;20030;-88
2022/05/11 08:39:16;;;;;;;7.35;1.60;;;16.30;99.90;;;;;;5009675;28;20038;-90
2022/05/11 08:42:00;;;;;;;8.27;1.88;;;16.30;99.90;;;;;;4959851;28;20098;-91
2022/05/11 08:44:41;;;;;;;6.78;1.67;;;16.30;99.90;;;;;;5011712;28;20057;-90
2022/05/11 08:47:45;;;;;;;8.80;2.83;;;16.40;99.90;;;;;;4985303;28;20081;-87
2022/05/11 08:50:38;;;;;;;9.10;2.17;;;16.40;99.90;;;;;;4990322;28;20135;-89
2022/05/11 08:53:30;;;;;;;7.88;2.38;;;16.40;99.90;;;;;;4973543;28;20054;-90
2022/05/11 08:56:11;;;;;;;12.65;2.40;;;16.40;99.90;;;;;;4993448;28;20084;-91
2022/05/11 08:58:54;;;;;;;7.60;1.95;;;16.50;99.90;;;;;;4989484;28;20081;-89
2022/05/11 09:01:50;;;;;;;10.10;1.83;;;16.40;99.90;;;;;;4995851;28;20069;-89
2022/05/11 09:05:06;;;;;;;5.68;1.45;;;16.30;99.90;;;;;;5007115;28;20042;-90
2022/05/11 09:08:03;;;;;;;4.75;2.25;;;16.30;99.90;;;;;;4994102;28;20205;-90
2022/05/11 09:10:31;;;;;;;7.18;1.83;;;16.40;99.90;;;;;;5009173;28;21153;-87
2022/05/11 09:13:11;;;;;;;6.43;1.70;;;16.50;99.90;;;;;;5003937;28;20103;-90
2022/05/11 09:16:22;;;;;;;7.32;1.63;;;16.50;99.90;;;;;;5006375;28;20041;-91
2022/05/11 09:18:53;;;;;;;6.22;1.77;;;16.80;99.90;;;;;;4950906;28;20037;-89
2022/05/11 09:21:36;;;;;;;6.75;1.85;;;16.90;99.90;;;;;;4955799;28;20047;-90
2022/05/11 09:24:22;;;;;;;7.10;1.80;;;17.10;99.90;;;;;;4954428;28;20031;-89
2022/05/11 09:27:01;;;;;;;6.82;1.88;;;17.20;99.90;;;;;;4959533;28;20053;-89
2022/05/11 09:29:45;;;;;;;6.28;1.20;;;17.30;99.90;;;;;;5011807;28;20037;-87
2022/05/11 09:32:58;;;;;;;5.27;1.67;;;17.30;99.90;;;;;;5004833;28;20037;-89
2022/05/11 09:35:41;;;;;;;4.13;1.20;;;17.30;99.90;;;;;;4996145;28;20121;-87
2022/05/11 09:38:54;;;;;;;3.45;1.40;;;17.30;99.90;;;;;;5010263;28;20041;-93
2022/05/11 09:41:20;;;;;;;5.50;1.50;;;17.40;99.90;;;;;;5004775;28;20042;-92
2022/05/11 09:44:41;;;;;;;4.50;1.30;;;17.50;99.90;;;;;;5012998;28;20049;-92
2022/05/11 09:47:33;;;;;;;4.10;1.42;;;17.70;99.90;;;;;;4993886;28;20033;-90
2022/05/11 09:50:45;;;;;;;8.38;1.98;;;17.70;99.90;;;;;;4992195;28;20042;-93
2022/05/11 09:53:40;;;;;;;5.47;1.60;;;17.70;99.90;;;;;;5007503;28;20077;-93
2022/05/11 09:56:36;;;;;;;4.43;1.10;;;17.70;99.90;;;;;;4994141;28;20389;-92
2022/05/11 09:59:29;;;;;;;4.03;1.50;;;17.70;99.90;;;;;;4992496;28;20057;-93
2022/05/11 10:03:18;;;;;;;2.97;1.10;;;17.70;99.90;;;;;;4993373;28;20129;-92
2022/05/11 10:06:07;;;;;;;4.18;1.10;;;17.70;99.90;;;;;;4967658;28;20133;-92
2022/05/11 10:08:44;;;;;;;3.60;1.30;;;17.80;99.90;;;;;;4993342;23;20053;-67
2022/05/11 10:11:28;;;;;;;6.75;1.25;;;17.80;99.90;;;;;;5042010;28;20405;-67
2022/05/11 10:14:00;;;;;;;4.63;1.15;;;17.70;99.90;;;;;;5038850;28;20517;-67
2022/05/11 10:22:31;;;;;;;6.13;1.88;;;17.50;99.90;;;;;;5025471;28;19921;-67
2022/05/11 10:25:13;;;;;;;3.33;1.30;;;17.40;99.90;;;;;;5041480;28;20044;-67
2022/05/11 10:28:00;;;;;;;5.03;1.20;;;17.50;99.90;;;;;;5038407;28;20042;-68
2022/05/11 10:30:37;;;;;;;3.85;1.17;;;17.60;99.90;;;;;;5043364;28;20185;-67
2022/05/11 10:33:17;;;;;;;2.13;1.05;;;17.80;99.90;;;;;;5039770;28;20473;-67
2022/05/11 10:36:04;;;;;;;2.63;0.93;;;18.00;99.90;;;;;;5041712;28;20072;-67
2022/05/11 10:38:50;;;;;;;2.78;0.88;;;17.90;99.80;;;;;;5019880;28;20158;-68
2022/05/11 10:41:45;;;;;;;3.78;1.08;;;17.90;99.90;;;;;;5044032;28;20281;-67
2022/05/11 10:44:49;;;;;;;5.38;1.40;;;18.00;99.90;;;;;;5040950;28;20045;-68
2022/05/11 10:47:51;;;;;;;3.15;1.27;;;18.10;99.90;;;;;;5020980;28;20045;-67
2022/05/11 10:50:21;;;;;;;3.47;1.23;;;18.10;99.90;;;;;;5035722;28;20049;-68
2022/05/11 10:53:15;;;;;;;5.13;1.27;;;18.10;99.90;;;;;;5040386;28;20075;-68
2022/05/11 10:55:46;;;;;;;6.15;1.67;;;18.20;99.90;;;;;;5038469;28;20490;-68
2022/05/11 10:58:26;;;;;;;7.72;1.35;;;18.20;99.90;;;;;;5041201;28;20037;-67
2022/05/11 11:01:15;;;;;;;8.48;1.30;;;18.20;99.90;;;;;;5038835;28;20405;-68
2022/05/11 11:04:18;;;;;;;7.47;2.47;;;18.20;99.90;;;;;;5032819;28;20053;-67
2022/05/11 11:07:11;;;;;;;5.60;1.67;;;18.30;99.90;;;;;;5033070;28;20455;-67
2022/05/11 11:09:39;;;;;;;7.35;2.17;;;18.40;99.90;;;;;;5033572;28;20374;-67
2022/05/11 11:12:17;;;;;;;7.70;1.98;;;18.40;99.90;;;;;;5039515;28;20517;-68
2022/05/11 11:14:48;;;;;;;8.05;2.15;;;18.50;99.90;;;;;;5039371;28;20130;-67
2022/05/11 11:17:19;;;;;;;4.13;1.85;;;18.50;99.90;;;;;;5040660;28;20040;-68
2022/05/11 11:19:50;;;;;;;10.38;2.30;;;18.70;99.90;;;;;;5038534;28;20045;-68
2022/05/11 11:22:15;;;;;;;5.45;1.63;;;18.90;99.90;;;;;;5037186;28;20076;-67
2022/05/11 11:24:43;;;;;;;7.03;2.20;;;18.90;99.90;;;;;;5037241;28;20073;-67
2022/05/11 11:27:10;;;;;;;6.25;1.90;;;19.00;99.90;;;;;;5037874;28;20045;-67
2022/05/11 11:29:37;;;;;;;3.65;1.70;;;19.10;99.90;;;;;;5041765;28;20045;-67
2022/05/11 11:32:16;;;;;;;7.38;2.05;;;19.10;99.90;;;;;;5022023;28;20112;-67
2022/05/11 11:34:51;;;;;;;6.85;1.92;;;19.20;99.90;;;;;;5027069;28;20041;-67
2022/05/11 11:37:31;;;;;;;8.27;2.42;;;19.30;99.90;;;;;;5033522;28;20267;-67
2022/05/11 11:39:59;;;;;;;6.30;1.45;;;19.30;99.90;;;;;;5037854;28;20410;-68
2022/05/11 11:42:43;;;;;;;7.50;2.17;;;19.10;99.90;;;;;;5034994;28;20206;-67
2022/05/11 11:45:29;;;;;;;7.13;2.10;;;18.90;99.90;;;;;;5039152;28;20037;-67
2022/05/11 11:47:59;;;;;;;5.55;1.50;;;18.80;99.90;;;;;;5034560;28;20061;-68
2022/05/11 11:50:49;;;;;;;4.47;1.80;;;18.60;99.90;;;;;;5036761;28;20069;-67
2022/05/11 11:53:21;;;;;;;6.55;2.40;;;18.40;99.90;;;;;;5030507;28;20058;-67
2022/05/11 11:55:47;;;;;;;6.40;2.05;;;18.30;99.90;;;;;;5039369;28;20111;-67
2022/05/11 11:58:20;;;;;;;4.82;2.15;;;18.20;99.90;;;;;;5025894;28;20486;-67
2022/05/11 12:00:45;;;;;;;4.43;1.20;;;18.30;99.90;;;;;;5038429;28;20060;-67
2022/05/11 12:03:23;;;;;;;6.68;1.75;;;18.30;99.90;;;;;;5036263;28;20083;-68
2022/05/11 12:05:54;;;;;;;5.82;1.63;;;18.40;99.90;;;;;;5026687;28;20045;-68
2022/05/11 12:17:08;;;;;;;5.47;1.50;;;18.70;99.90;;;;;;4967091;28;20046;-68
2022/05/11 12:19:38;;;;;;;3.38;1.27;;;18.80;99.90;;;;;;4971375;28;20042;-67
2022/05/11 12:22:17;;;;;;;5.00;1.60;;;18.90;99.90;;;;;;5004786;28;20042;-68
2022/05/11 12:24:57;;;;;;;6.43;1.60;;;19.10;99.00;;;;;;5048122;28;20048;-68
2022/05/11 12:27:32;;;;;;;6.45;1.20;;;19.20;99.90;;;;;;5043204;28;20041;-68
2022/05/11 12:30:02;;;;;;;2.63;0.93;;;19.10;99.90;;;;;;5048571;28;21066;-67
2022/05/11 12:32:29;;;;;;;6.05;1.83;;;19.00;99.90;;;;;;5035814;28;20303;-68
2022/05/11 12:34:57;;;;;;;2.92;1.35;;;19.10;99.90;;;;;;5034165;28;20043;-68
2022/05/11 12:37:32;;;;;;;4.20;1.20;;;19.10;99.40;;;;;;5021214;28;20048;-68
2022/05/11 12:40:02;;;;;;;7.28;1.67;;;19.30;96.20;;;;;;5040687;28;20227;-68
2022/05/11 12:42:31;;;;;;;4.72;1.42;;;19.40;95.30;;;;;;5044324;28;20403;-68
2022/05/11 12:44:57;;;;;;;5.82;1.30;;;19.60;93.60;;;;;;5053695;28;20029;-68
2022/05/11 12:47:25;;;;;;;4.50;1.20;;;19.70;94.10;;;;;;5045760;28;20498;-68
2022/05/11 12:49:51;;;;;;;9.02;1.67;;;19.80;92.30;;;;;;5094325;22;20033;-66
2022/05/11 12:52:20;;;;;;;5.28;1.40;;;19.90;92.00;;;;;;5036346;28;20164;-66
2022/05/11 12:54:57;;;;;;;4.18;0.98;;;19.90;91.60;;;;;;5049386;28;20107;-66
2022/05/11 12:57:23;;;;;;;4.43;1.42;;;20.10;92.40;;;;;;5035320;28;20044;-66
2022/05/11 12:59:51;;;;;;;5.40;1.25;;;20.20;89.00;;;;;;5026808;28;20054;-66
2022/05/11 13:02:25;;;;;;;3.42;1.00;;;20.30;90.50;;;;;;5051755;28;20820;-67
2022/05/11 13:04:54;;;;;;;4.88;1.80;;;20.30;85.40;;;;;;5044841;28;20041;-66
2022/05/11 13:07:42;;;;;;;3.53;1.42;;;20.30;90.10;;;;;;5030395;28;20440;-66
2022/05/11 13:10:12;;;;;;;4.25;1.40;;;20.40;91.10;;;;;;5016577;28;20071;-66
2022/05/11 13:12:39;;;;;;;7.32;1.67;;;20.30;87.70;;;;;;5043940;28;20048;-66
2022/05/11 13:15:05;;;;;;;8.50;1.80;;;20.30;84.80;;;;;;5050034;28;20032;-75
2022/05/11 13:17:36;;;;;;;2.40;1.10;;;20.30;89.10;;;;;;5044701;28;20336;-70
2022/05/11 13:20:19;;;;;;;6.13;1.50;;;20.30;87.30;;;;;;5014607;28;20056;-67
2022/05/11 13:23:00;;;;;;;5.53;1.70;;;20.20;79.30;;;;;;5026718;28;20052;-71
2022/05/11 13:25:49;;;;;;;5.25;1.52;;;20.00;79.80;;;;;;5046305;28;20045;-70
2022/05/11 13:28:26;;;;;;;6.20;2.10;;;20.00;87.20;;;;;;5047822;28;20086;-70
2022/05/11 13:30:54;;;;;;;;;;;19.90;91.40;;;;;;5052699;28;20116;-71
2022/05/11 13:33:35;;;;;;;6.57;2.10;;;19.70;94.30;;;;;;5035516;28;19933;-70
2022/05/11 13:36:28;;;;;;;9.05;2.40;;;19.70;94.30;;;;;;5045742;28;20098;-70
2022/05/11 13:39:31;;;;;;;4.28;1.42;;;19.50;92.60;;;;;;5010987;28;20043;-70
2022/05/11 13:42:00;;;;;;;5.57;1.40;;;19.40;93.30;;;;;;5017247;28;20059;-70
2022/05/11 13:44:38;;;;;;;3.30;1.40;;;19.60;93.70;;;;;;5022868;28;20041;-71
2022/05/11 13:50:36;;;;;;;5.32;1.48;;;19.90;85.90;;;;;;4957609;28;20133;-66
2022/05/11 13:53:11;;;;;;;7.32;1.67;;;20.10;89.50;;;;;;4961715;28;20507;-66
2022/05/11 13:55:40;;;;;;;10.32;1.20;;;20.10;82.30;;;;;;5030380;28;20041;-66
2022/05/11 13:58:42;;;;;;;6.80;1.58;;;20.10;78.30;;;;;;5049619;28;20071;-67
2022/05/11 14:01:18;;;;;;;7.07;1.23;;;20.10;76.50;;;;;;4977306;28;20653;-68
2022/05/11 14:03:59;;;;;;;4.27;0.90;;;20.10;78.20;;;;;;5035222;28;20163;-66